sensor_id;sensor_type;location;lat;lon;timestamp;temperature;humidity
65203;HTU21D;51788;45.124;38.966;2023-01-28T00:00:32;-1.76;79.85
65203;HTU21D;51788;45.124;38.966;2023-01-28T00:02:58;-1.82;79.73
65203;HTU21D;51788;45.124;38.966;2023-01-28T00:05:24;-1.86;79.62
65203;HTU21D;51788;45.124;38.966;2023-01-28T00:07:50;-1.85;80.01
65203;HTU21D;51788;45.124;38.966;2023-01-28T00:10:17;-1.89;80.01
65203;HTU21D;51788;45.124;38.966;2023-01-28T00:12:43;-1.91;80.14
65203;HTU21D;51788;45.124;38.966;2023-01-28T00:15:10;-1.93;80.28
65203;HTU21D;51788;45.124;38.966;2023-01-28T00:17:36;-1.95;80.34
65203;HTU21D;51788;45.124;38.966;2023-01-28T00:20:03;-1.99;80.24
65203;HTU21D;51788;45.124;38.966;2023-01-28T00:22:30;-2.00;80.22
65203;HTU21D;51788;45.124;38.966;2023-01-28T00:24:56;-2.00;80.33
65203;HTU21D;51788;45.124;38.966;2023-01-28T00:27:22;-2.01;80.16
65203;HTU21D;51788;45.124;38.966;2023-01-28T00:29:48;-2.03;80.07
65203;HTU21D;51788;45.124;38.966;2023-01-28T00:32:14;-2.01;80.45
65203;HTU21D;51788;45.124;38.966;2023-01-28T00:34:40;-2.05;80.13
65203;HTU21D;51788;45.124;38.966;2023-01-28T00:37:06;-2.04;80.40
65203;HTU21D;51788;45.124;38.966;2023-01-28T00:39:32;-2.05;80.52
65203;HTU21D;51788;45.124;38.966;2023-01-28T00:42:00;-2.12;80.56
65203;HTU21D;51788;45.124;38.966;2023-01-28T00:44:26;-2.10;80.75
65203;HTU21D;51788;45.124;38.966;2023-01-28T00:46:52;-2.12;80.83
65203;HTU21D;51788;45.124;38.966;2023-01-28T00:49:21;-2.14;80.84
65203;HTU21D;51788;45.124;38.966;2023-01-28T00:51:47;-2.17;80.72
65203;HTU21D;51788;45.124;38.966;2023-01-28T00:54:15;-2.17;80.74
65203;HTU21D;51788;45.124;38.966;2023-01-28T00:56:41;-2.17;80.59
65203;HTU21D;51788;45.124;38.966;2023-01-28T00:59:06;-2.13;80.44
65203;HTU21D;51788;45.124;38.966;2023-01-28T01:01:32;-2.10;80.58
65203;HTU21D;51788;45.124;38.966;2023-01-28T01:03:58;-2.12;80.56
65203;HTU21D;51788;45.124;38.966;2023-01-28T01:06:34;-2.09;80.61
65203;HTU21D;51788;45.124;38.966;2023-01-28T01:09:02;-2.12;80.46
65203;HTU21D;51788;45.124;38.966;2023-01-28T01:11:29;-2.06;80.50
65203;HTU21D;51788;45.124;38.966;2023-01-28T01:13:56;-2.04;80.40
65203;HTU21D;51788;45.124;38.966;2023-01-28T01:16:27;-2.03;80.48
65203;HTU21D;51788;45.124;38.966;2023-01-28T01:18:55;-2.03;80.51
65203;HTU21D;51788;45.124;38.966;2023-01-28T01:21:24;-2.01;80.41
65203;HTU21D;51788;45.124;38.966;2023-01-28T01:23:50;-1.97;80.33
65203;HTU21D;51788;45.124;38.966;2023-01-28T01:26:17;-1.94;80.22
65203;HTU21D;51788;45.124;38.966;2023-01-28T01:28:43;-1.92;80.24
65203;HTU21D;51788;45.124;38.966;2023-01-28T01:31:14;-1.91;80.12
65203;HTU21D;51788;45.124;38.966;2023-01-28T01:33:41;-1.89;80.08
65203;HTU21D;51788;45.124;38.966;2023-01-28T01:36:09;-1.87;80.20
65203;HTU21D;51788;45.124;38.966;2023-01-28T01:38:35;-1.85;80.14
65203;HTU21D;51788;45.124;38.966;2023-01-28T01:41:02;-1.80;80.07
65203;HTU21D;51788;45.124;38.966;2023-01-28T01:44:04;-1.79;80.11
65203;HTU21D;51788;45.124;38.966;2023-01-28T01:46:41;-1.83;80.11
65203;HTU21D;51788;45.124;38.966;2023-01-28T01:49:18;-1.84;80.11
65203;HTU21D;51788;45.124;38.966;2023-01-28T01:51:46;-1.79;80.19
65203;HTU21D;51788;45.124;38.966;2023-01-28T01:54:14;-1.79;80.18
65203;HTU21D;51788;45.124;38.966;2023-01-28T01:56:42;-1.77;80.20
65203;HTU21D;51788;45.124;38.966;2023-01-28T01:59:12;-1.77;80.17
65203;HTU21D;51788;45.124;38.966;2023-01-28T02:01:40;-1.76;80.17
65203;HTU21D;51788;45.124;38.966;2023-01-28T02:04:12;-1.75;80.16
65203;HTU21D;51788;45.124;38.966;2023-01-28T02:06:41;-1.73;80.17
65203;HTU21D;51788;45.124;38.966;2023-01-28T02:09:28;-1.73;80.17
65203;HTU21D;51788;45.124;38.966;2023-01-28T02:11:56;-1.70;80.18
65203;HTU21D;51788;45.124;38.966;2023-01-28T02:14:27;-1.69;80.14
65203;HTU21D;51788;45.124;38.966;2023-01-28T02:16:53;-1.67;80.09
65203;HTU21D;51788;45.124;38.966;2023-01-28T02:19:21;-1.62;79.99
65203;HTU21D;51788;45.124;38.966;2023-01-28T02:33:44;-1.56;79.82
65203;HTU21D;51788;45.124;38.966;2023-01-28T02:38:51;-1.56;79.72
65203;HTU21D;51788;45.124;38.966;2023-01-28T02:41:31;-1.55;79.61
65203;HTU21D;51788;45.124;38.966;2023-01-28T02:44:01;-1.56;79.59
65203;HTU21D;51788;45.124;38.966;2023-01-28T02:49:38;-1.56;79.59
65203;HTU21D;51788;45.124;38.966;2023-01-28T02:58:29;-1.58;79.65
65203;HTU21D;51788;45.124;38.966;2023-01-28T03:01:36;-1.55;79.61
65203;HTU21D;51788;45.124;38.966;2023-01-28T03:04:17;-1.53;79.54
65203;HTU21D;51788;45.124;38.966;2023-01-28T03:06:50;-1.50;79.52
65203;HTU21D;51788;45.124;38.966;2023-01-28T03:09:19;-1.47;79.45
65203;HTU21D;51788;45.124;38.966;2023-01-28T03:12:08;-1.42;79.45
65203;HTU21D;51788;45.124;38.966;2023-01-28T03:15:23;-1.41;79.33
65203;HTU21D;51788;45.124;38.966;2023-01-28T03:21:15;-1.41;79.34
65203;HTU21D;51788;45.124;38.966;2023-01-28T03:24:03;-1.40;79.35
65203;HTU21D;51788;45.124;38.966;2023-01-28T03:30:00;-1.40;79.30
65203;HTU21D;51788;45.124;38.966;2023-01-28T03:32:46;-1.39;79.39
65203;HTU21D;51788;45.124;38.966;2023-01-28T03:35:33;-1.38;79.40
65203;HTU21D;51788;45.124;38.966;2023-01-28T03:38:19;-1.39;79.37
65203;HTU21D;51788;45.124;38.966;2023-01-28T03:40:56;-1.36;79.36
65203;HTU21D;51788;45.124;38.966;2023-01-28T03:43:23;-1.33;79.36
65203;HTU21D;51788;45.124;38.966;2023-01-28T03:45:49;-1.33;79.32
65203;HTU21D;51788;45.124;38.966;2023-01-28T03:48:21;-1.33;79.28
65203;HTU21D;51788;45.124;38.966;2023-01-28T03:50:48;-1.30;79.27
65203;HTU21D;51788;45.124;38.966;2023-01-28T03:53:15;-1.32;79.26
65203;HTU21D;51788;45.124;38.966;2023-01-28T03:55:46;-1.30;79.21
65203;HTU21D;51788;45.124;38.966;2023-01-28T03:58:13;-1.30;79.21
65203;HTU21D;51788;45.124;38.966;2023-01-28T04:00:40;-1.29;79.21
65203;HTU21D;51788;45.124;38.966;2023-01-28T04:03:12;-1.26;79.21
65203;HTU21D;51788;45.124;38.966;2023-01-28T04:06:03;-1.25;79.11
65203;HTU21D;51788;45.124;38.966;2023-01-28T04:08:49;-1.26;79.11
65203;HTU21D;51788;45.124;38.966;2023-01-28T04:11:37;-1.27;79.11
65203;HTU21D;51788;45.124;38.966;2023-01-28T04:14:05;-1.25;79.11
65203;HTU21D;51788;45.124;38.966;2023-01-28T04:16:48;-1.24;79.10
65203;HTU21D;51788;45.124;38.966;2023-01-28T04:19:15;-1.24;79.08
65203;HTU21D;51788;45.124;38.966;2023-01-28T04:21:43;-1.20;79.00
65203;HTU21D;51788;45.124;38.966;2023-01-28T04:24:09;-1.20;78.96
65203;HTU21D;51788;45.124;38.966;2023-01-28T04:26:35;-1.20;78.92
65203;HTU21D;51788;45.124;38.966;2023-01-28T04:29:01;-1.20;78.92
65203;HTU21D;51788;45.124;38.966;2023-01-28T04:31:28;-1.20;78.88
65203;HTU21D;51788;45.124;38.966;2023-01-28T04:34:13;-1.19;78.92
65203;HTU21D;51788;45.124;38.966;2023-01-28T04:36:49;-1.15;78.93
65203;HTU21D;51788;45.124;38.966;2023-01-28T04:39:42;-1.12;78.93
65203;HTU21D;51788;45.124;38.966;2023-01-28T04:42:38;-1.02;78.86
65203;HTU21D;51788;45.124;38.966;2023-01-28T04:45:09;-0.95;78.72
65203;HTU21D;51788;45.124;38.966;2023-01-28T04:48:10;-0.99;78.48
65203;HTU21D;51788;45.124;38.966;2023-01-28T04:50:44;-1.02;78.58
65203;HTU21D;51788;45.124;38.966;2023-01-28T04:53:33;-1.03;78.69
65203;HTU21D;51788;45.124;38.966;2023-01-28T04:56:05;-1.01;78.68
65203;HTU21D;51788;45.124;38.966;2023-01-28T04:58:33;-0.98;78.69
65203;HTU21D;51788;45.124;38.966;2023-01-28T05:01:07;-0.94;78.62
65203;HTU21D;51788;45.124;38.966;2023-01-28T05:03:33;-0.91;78.56
65203;HTU21D;51788;45.124;38.966;2023-01-28T05:06:00;-0.93;78.53
65203;HTU21D;51788;45.124;38.966;2023-01-28T05:08:36;-0.91;78.47
65203;HTU21D;51788;45.124;38.966;2023-01-28T05:11:02;-0.90;78.50
65203;HTU21D;51788;45.124;38.966;2023-01-28T05:13:29;-0.87;78.44
65203;HTU21D;51788;45.124;38.966;2023-01-28T05:15:54;-0.85;78.37
65203;HTU21D;51788;45.124;38.966;2023-01-28T05:18:20;-0.82;78.32
65203;HTU21D;51788;45.124;38.966;2023-01-28T05:20:59;-0.80;78.20
65203;HTU21D;51788;45.124;38.966;2023-01-28T05:23:25;-0.80;78.23
65203;HTU21D;51788;45.124;38.966;2023-01-28T05:25:54;-0.76;78.09
65203;HTU21D;51788;45.124;38.966;2023-01-28T05:28:21;-0.73;78.14
65203;HTU21D;51788;45.124;38.966;2023-01-28T05:30:48;-0.72;77.99
65203;HTU21D;51788;45.124;38.966;2023-01-28T05:33:14;-0.70;77.98
65203;HTU21D;51788;45.124;38.966;2023-01-28T05:35:41;-0.67;77.95
65203;HTU21D;51788;45.124;38.966;2023-01-28T05:38:08;-0.65;77.77
65203;HTU21D;51788;45.124;38.966;2023-01-28T05:40:34;-0.65;77.63
65203;HTU21D;51788;45.124;38.966;2023-01-28T05:43:01;-0.66;77.60
65203;HTU21D;51788;45.124;38.966;2023-01-28T05:45:40;-0.62;77.60
65203;HTU21D;51788;45.124;38.966;2023-01-28T05:48:29;-0.58;77.47
65203;HTU21D;51788;45.124;38.966;2023-01-28T05:51:07;-0.56;77.41
65203;HTU21D;51788;45.124;38.966;2023-01-28T05:53:35;-0.55;77.24
65203;HTU21D;51788;45.124;38.966;2023-01-28T05:56:01;-0.53;77.37
65203;HTU21D;51788;45.124;38.966;2023-01-28T05:58:29;-0.49;77.35
65203;HTU21D;51788;45.124;38.966;2023-01-28T06:01:00;-0.47;77.15
65203;HTU21D;51788;45.124;38.966;2023-01-28T06:03:36;-0.46;77.05
65203;HTU21D;51788;45.124;38.966;2023-01-28T06:06:02;-0.45;77.16
65203;HTU21D;51788;45.124;38.966;2023-01-28T06:08:29;-0.42;77.08
65203;HTU21D;51788;45.124;38.966;2023-01-28T06:10:56;-0.42;76.80
65203;HTU21D;51788;45.124;38.966;2023-01-28T06:13:23;-0.41;76.96
65203;HTU21D;51788;45.124;38.966;2023-01-28T06:16:09;-0.39;76.92
65203;HTU21D;51788;45.124;38.966;2023-01-28T06:18:35;-0.38;77.15
65203;HTU21D;51788;45.124;38.966;2023-01-28T06:21:01;-0.29;77.11
65203;HTU21D;51788;45.124;38.966;2023-01-28T06:23:27;-0.26;77.01
65203;HTU21D;51788;45.124;38.966;2023-01-28T06:25:56;-0.23;76.90
65203;HTU21D;51788;45.124;38.966;2023-01-28T06:28:24;-0.20;76.60
65203;HTU21D;51788;45.124;38.966;2023-01-28T06:30:51;-0.22;76.53
65203;HTU21D;51788;45.124;38.966;2023-01-28T06:33:18;-0.20;76.29
65203;HTU21D;51788;45.124;38.966;2023-01-28T06:35:45;-0.17;76.17
65203;HTU21D;51788;45.124;38.966;2023-01-28T06:38:11;-0.20;76.47
65203;HTU21D;51788;45.124;38.966;2023-01-28T06:40:38;-0.17;76.70
65203;HTU21D;51788;45.124;38.966;2023-01-28T06:43:04;-0.12;76.65
65203;HTU21D;51788;45.124;38.966;2023-01-28T06:45:31;-0.11;75.83
65203;HTU21D;51788;45.124;38.966;2023-01-28T06:47:58;-0.14;75.89
65203;HTU21D;51788;45.124;38.966;2023-01-28T06:50:24;-0.11;75.73
65203;HTU21D;51788;45.124;38.966;2023-01-28T06:52:50;-0.09;75.89
65203;HTU21D;51788;45.124;38.966;2023-01-28T06:55:16;-0.08;75.65
65203;HTU21D;51788;45.124;38.966;2023-01-28T06:57:42;-0.09;75.94
65203;HTU21D;51788;45.124;38.966;2023-01-28T07:00:11;-0.03;75.95
65203;HTU21D;51788;45.124;38.966;2023-01-28T07:02:38;-0.00;75.94
65203;HTU21D;51788;45.124;38.966;2023-01-28T07:05:04;0.07;75.82
65203;HTU21D;51788;45.124;38.966;2023-01-28T07:07:31;0.12;75.63
65203;HTU21D;51788;45.124;38.966;2023-01-28T07:09:57;0.20;75.93
65203;HTU21D;51788;45.124;38.966;2023-01-28T07:12:23;0.29;75.36
65203;HTU21D;51788;45.124;38.966;2023-01-28T07:14:49;0.33;74.86
65203;HTU21D;51788;45.124;38.966;2023-01-28T07:17:15;0.37;74.76
65203;HTU21D;51788;45.124;38.966;2023-01-28T07:19:41;0.39;74.75
65203;HTU21D;51788;45.124;38.966;2023-01-28T07:22:07;0.46;74.64
65203;HTU21D;51788;45.124;38.966;2023-01-28T07:24:33;0.51;74.70
65203;HTU21D;51788;45.124;38.966;2023-01-28T07:26:59;0.57;74.76
65203;HTU21D;51788;45.124;38.966;2023-01-28T07:29:25;0.64;74.83
65203;HTU21D;51788;45.124;38.966;2023-01-28T07:31:51;0.69;74.67
65203;HTU21D;51788;45.124;38.966;2023-01-28T07:34:17;0.78;73.99
65203;HTU21D;51788;45.124;38.966;2023-01-28T07:36:43;0.86;73.87
65203;HTU21D;51788;45.124;38.966;2023-01-28T07:39:09;0.95;73.77
65203;HTU21D;51788;45.124;38.966;2023-01-28T07:41:34;1.03;73.77
65203;HTU21D;51788;45.124;38.966;2023-01-28T07:44:04;1.12;73.31
65203;HTU21D;51788;45.124;38.966;2023-01-28T07:46:30;1.22;72.97
65203;HTU21D;51788;45.124;38.966;2023-01-28T07:48:56;1.29;73.49
65203;HTU21D;51788;45.124;38.966;2023-01-28T07:51:22;1.40;73.37
65203;HTU21D;51788;45.124;38.966;2023-01-28T07:53:48;1.50;72.47
65203;HTU21D;51788;45.124;38.966;2023-01-28T07:56:14;1.58;72.64
65203;HTU21D;51788;45.124;38.966;2023-01-28T07:58:40;1.68;71.90
65203;HTU21D;51788;45.124;38.966;2023-01-28T08:01:05;1.75;72.51
65203;HTU21D;51788;45.124;38.966;2023-01-28T08:03:31;1.87;72.23
65203;HTU21D;51788;45.124;38.966;2023-01-28T08:05:57;1.97;72.13
65203;HTU21D;51788;45.124;38.966;2023-01-28T08:08:25;2.11;71.80
65203;HTU21D;51788;45.124;38.966;2023-01-28T08:10:52;2.21;71.64
65203;HTU21D;51788;45.124;38.966;2023-01-28T08:13:18;2.30;71.19
65203;HTU21D;51788;45.124;38.966;2023-01-28T08:15:45;2.35;70.69
65203;HTU21D;51788;45.124;38.966;2023-01-28T08:18:13;2.40;70.82
65203;HTU21D;51788;45.124;38.966;2023-01-28T08:20:40;2.45;69.96
65203;HTU21D;51788;45.124;38.966;2023-01-28T08:23:11;2.52;70.16
65203;HTU21D;51788;45.124;38.966;2023-01-28T08:25:37;2.60;70.00
65203;HTU21D;51788;45.124;38.966;2023-01-28T08:28:04;2.71;70.28
65203;HTU21D;51788;45.124;38.966;2023-01-28T08:30:31;2.81;69.91
65203;HTU21D;51788;45.124;38.966;2023-01-28T08:32:58;2.89;69.11
65203;HTU21D;51788;45.124;38.966;2023-01-28T08:35:25;2.96;68.83
65203;HTU21D;51788;45.124;38.966;2023-01-28T08:37:52;3.02;69.20
65203;HTU21D;51788;45.124;38.966;2023-01-28T08:40:18;3.15;68.40
65203;HTU21D;51788;45.124;38.966;2023-01-28T08:42:48;3.19;68.08
65203;HTU21D;51788;45.124;38.966;2023-01-28T08:45:15;3.24;68.23
65203;HTU21D;51788;45.124;38.966;2023-01-28T08:47:48;3.28;68.39
65203;HTU21D;51788;45.124;38.966;2023-01-28T08:50:15;3.31;67.61
65203;HTU21D;51788;45.124;38.966;2023-01-28T08:52:42;3.32;68.26
65203;HTU21D;51788;45.124;38.966;2023-01-28T08:55:10;3.35;67.85
65203;HTU21D;51788;45.124;38.966;2023-01-28T08:57:36;3.38;67.46
65203;HTU21D;51788;45.124;38.966;2023-01-28T09:00:03;3.36;67.14
65203;HTU21D;51788;45.124;38.966;2023-01-28T09:02:29;3.40;66.87
65203;HTU21D;51788;45.124;38.966;2023-01-28T09:04:55;3.40;67.10
65203;HTU21D;51788;45.124;38.966;2023-01-28T09:07:21;3.43;67.30
65203;HTU21D;51788;45.124;38.966;2023-01-28T09:09:47;3.47;67.59
65203;HTU21D;51788;45.124;38.966;2023-01-28T09:12:13;3.54;67.32
65203;HTU21D;51788;45.124;38.966;2023-01-28T09:14:39;3.61;68.04
65203;HTU21D;51788;45.124;38.966;2023-01-28T09:17:05;3.76;67.52
65203;HTU21D;51788;45.124;38.966;2023-01-28T09:19:31;3.84;66.96
65203;HTU21D;51788;45.124;38.966;2023-01-28T09:21:57;3.94;67.69
65203;HTU21D;51788;45.124;38.966;2023-01-28T09:24:22;4.04;66.55
65203;HTU21D;51788;45.124;38.966;2023-01-28T09:26:49;4.06;66.62
65203;HTU21D;51788;45.124;38.966;2023-01-28T09:29:15;4.07;65.77
65203;HTU21D;51788;45.124;38.966;2023-01-28T09:31:41;4.06;65.50
65203;HTU21D;51788;45.124;38.966;2023-01-28T09:34:08;4.05;65.34
65203;HTU21D;51788;45.124;38.966;2023-01-28T09:36:34;4.06;64.63
65203;HTU21D;51788;45.124;38.966;2023-01-28T09:39:01;4.05;64.90
65203;HTU21D;51788;45.124;38.966;2023-01-28T09:41:49;4.08;64.96
65203;HTU21D;51788;45.124;38.966;2023-01-28T09:44:28;4.12;64.84
65203;HTU21D;51788;45.124;38.966;2023-01-28T09:47:02;4.13;64.80
65203;HTU21D;51788;45.124;38.966;2023-01-28T09:49:39;4.16;65.60
65203;HTU21D;51788;45.124;38.966;2023-01-28T09:52:12;4.21;65.53
65203;HTU21D;51788;45.124;38.966;2023-01-28T09:54:58;4.28;63.73
65203;HTU21D;51788;45.124;38.966;2023-01-28T09:57:30;4.22;64.23
65203;HTU21D;51788;45.124;38.966;2023-01-28T10:00:02;4.19;64.38
65203;HTU21D;51788;45.124;38.966;2023-01-28T10:05:53;4.21;64.80
65203;HTU21D;51788;45.124;38.966;2023-01-28T10:11:37;4.24;64.97
65203;HTU21D;51788;45.124;38.966;2023-01-28T10:19:29;4.45;65.58
65203;HTU21D;51788;45.124;38.966;2023-01-28T10:22:06;4.54;65.82
65203;HTU21D;51788;45.124;38.966;2023-01-28T10:24:40;4.64;65.62
65203;HTU21D;51788;45.124;38.966;2023-01-28T10:27:16;4.71;65.58
65203;HTU21D;51788;45.124;38.966;2023-01-28T10:29:45;4.75;64.02
65203;HTU21D;51788;45.124;38.966;2023-01-28T10:34:51;4.80;64.11
65203;HTU21D;51788;45.124;38.966;2023-01-28T10:37:18;4.82;64.66
65203;HTU21D;51788;45.124;38.966;2023-01-28T10:39:45;4.91;64.98
65203;HTU21D;51788;45.124;38.966;2023-01-28T10:42:32;5.03;63.72
65203;HTU21D;51788;45.124;38.966;2023-01-28T10:45:02;5.05;63.62
65203;HTU21D;51788;45.124;38.966;2023-01-28T10:47:43;5.08;64.52
65203;HTU21D;51788;45.124;38.966;2023-01-28T10:50:21;5.15;64.13
65203;HTU21D;51788;45.124;38.966;2023-01-28T10:52:55;5.12;64.48
65203;HTU21D;51788;45.124;38.966;2023-01-28T10:55:24;5.13;64.78
65203;HTU21D;51788;45.124;38.966;2023-01-28T10:57:52;5.16;64.92
65203;HTU21D;51788;45.124;38.966;2023-01-28T11:02:47;5.08;65.37
65203;HTU21D;51788;45.124;38.966;2023-01-28T11:07:40;5.03;66.01
65203;HTU21D;51788;45.124;38.966;2023-01-28T11:12:55;5.03;66.57
65203;HTU21D;51788;45.124;38.966;2023-01-28T11:15:21;5.03;66.78
65203;HTU21D;51788;45.124;38.966;2023-01-28T11:17:52;5.00;66.99
65203;HTU21D;51788;45.124;38.966;2023-01-28T11:20:22;5.03;67.16
65203;HTU21D;51788;45.124;38.966;2023-01-28T11:22:50;5.01;67.24
65203;HTU21D;51788;45.124;38.966;2023-01-28T11:25:23;4.93;67.25
65203;HTU21D;51788;45.124;38.966;2023-01-28T11:27:52;4.90;67.56
65203;HTU21D;51788;45.124;38.966;2023-01-28T11:30:34;4.91;67.75
65203;HTU21D;51788;45.124;38.966;2023-01-28T11:35:35;4.87;68.02
65203;HTU21D;51788;45.124;38.966;2023-01-28T11:38:01;4.87;68.11
65203;HTU21D;51788;45.124;38.966;2023-01-28T11:40:28;4.89;68.17
65203;HTU21D;51788;45.124;38.966;2023-01-28T11:42:55;4.89;68.27
65203;HTU21D;51788;45.124;38.966;2023-01-28T11:51:02;4.91;68.68
65203;HTU21D;51788;45.124;38.966;2023-01-28T11:53:51;4.86;68.91
65203;HTU21D;51788;45.124;38.966;2023-01-28T12:05:10;4.71;69.98
65203;HTU21D;51788;45.124;38.966;2023-01-28T12:15:51;4.61;71.51
65203;HTU21D;51788;45.124;38.966;2023-01-28T12:18:40;4.56;72.25
65203;HTU21D;51788;45.124;38.966;2023-01-28T12:24:34;4.42;73.35
65203;HTU21D;51788;45.124;38.966;2023-01-28T12:29:43;4.29;73.98
65203;HTU21D;51788;45.124;38.966;2023-01-28T12:40:21;4.22;74.61
65203;HTU21D;51788;45.124;38.966;2023-01-28T12:42:59;4.23;74.35
65203;HTU21D;51788;45.124;38.966;2023-01-28T12:45:43;4.30;74.38
65203;HTU21D;51788;45.124;38.966;2023-01-28T12:50:42;4.36;74.03
65203;HTU21D;51788;45.124;38.966;2023-01-28T12:53:22;4.43;74.03
65203;HTU21D;51788;45.124;38.966;2023-01-28T12:56:02;4.46;74.06
65203;HTU21D;51788;45.124;38.966;2023-01-28T12:59:09;4.50;74.03
65203;HTU21D;51788;45.124;38.966;2023-01-28T13:01:44;4.54;74.18
65203;HTU21D;51788;45.124;38.966;2023-01-28T13:04:33;4.54;74.54
65203;HTU21D;51788;45.124;38.966;2023-01-28T13:07:24;4.53;74.71
65203;HTU21D;51788;45.124;38.966;2023-01-28T13:12:37;4.54;75.12
65203;HTU21D;51788;45.124;38.966;2023-01-28T13:15:09;4.54;74.99
65203;HTU21D;51788;45.124;38.966;2023-01-28T13:17:36;4.60;75.01
65203;HTU21D;51788;45.124;38.966;2023-01-28T13:20:13;4.63;74.92
65203;HTU21D;51788;45.124;38.966;2023-01-28T13:22:43;4.65;75.02
65203;HTU21D;51788;45.124;38.966;2023-01-28T13:27:56;4.76;74.86
65203;HTU21D;51788;45.124;38.966;2023-01-28T13:30:28;4.80;74.83
65203;HTU21D;51788;45.124;38.966;2023-01-28T13:33:03;4.86;74.78
65203;HTU21D;51788;45.124;38.966;2023-01-28T13:37:55;4.90;74.67
65203;HTU21D;51788;45.124;38.966;2023-01-28T13:40:26;4.92;74.63
65203;HTU21D;51788;45.124;38.966;2023-01-28T13:43:49;4.96;74.69
65203;HTU21D;51788;45.124;38.966;2023-01-28T13:46:09;4.96;74.66
65203;HTU21D;51788;45.124;38.966;2023-01-28T13:51:11;4.97;74.59
65203;HTU21D;51788;45.124;38.966;2023-01-28T13:53:47;5.00;74.56
65203;HTU21D;51788;45.124;38.966;2023-01-28T13:56:25;5.00;74.57
65203;HTU21D;51788;45.124;38.966;2023-01-28T13:59:05;5.00;74.57
65203;HTU21D;51788;45.124;38.966;2023-01-28T14:18:58;5.02;74.51
65203;HTU21D;51788;45.124;38.966;2023-01-28T14:21:26;5.05;74.47
65203;HTU21D;51788;45.124;38.966;2023-01-28T14:23:54;5.06;74.45
65203;HTU21D;51788;45.124;38.966;2023-01-28T14:29:17;5.09;74.41
65203;HTU21D;51788;45.124;38.966;2023-01-28T14:31:45;5.10;74.35
65203;HTU21D;51788;45.124;38.966;2023-01-28T14:34:27;5.11;74.22
65203;HTU21D;51788;45.124;38.966;2023-01-28T14:36:56;5.13;74.12
65203;HTU21D;51788;45.124;38.966;2023-01-28T14:39:29;5.12;74.17
65203;HTU21D;51788;45.124;38.966;2023-01-28T14:41:59;5.16;74.15
65203;HTU21D;51788;45.124;38.966;2023-01-28T14:44:29;5.15;74.02
65203;HTU21D;51788;45.124;38.966;2023-01-28T14:50:26;5.13;74.07
65203;HTU21D;51788;45.124;38.966;2023-01-28T14:56:08;5.17;73.83
65203;HTU21D;51788;45.124;38.966;2023-01-28T14:58:52;5.17;73.77
65203;HTU21D;51788;45.124;38.966;2023-01-28T15:01:22;5.16;73.73
65203;HTU21D;51788;45.124;38.966;2023-01-28T15:03:48;5.15;73.76
65203;HTU21D;51788;45.124;38.966;2023-01-28T15:06:20;5.15;73.80
65203;HTU21D;51788;45.124;38.966;2023-01-28T15:08:52;5.13;73.84
65203;HTU21D;51788;45.124;38.966;2023-01-28T15:11:23;5.12;73.83
65203;HTU21D;51788;45.124;38.966;2023-01-28T15:13:52;5.17;73.48
65203;HTU21D;51788;45.124;38.966;2023-01-28T15:16:24;5.13;73.55
65203;HTU21D;51788;45.124;38.966;2023-01-28T15:18:55;5.10;73.80
65203;HTU21D;51788;45.124;38.966;2023-01-28T15:21:23;5.09;73.94
65203;HTU21D;51788;45.124;38.966;2023-01-28T15:23:56;5.07;74.03
65203;HTU21D;51788;45.124;38.966;2023-01-28T15:26:33;5.08;74.06
65203;HTU21D;51788;45.124;38.966;2023-01-28T15:28:59;5.09;74.07
65203;HTU21D;51788;45.124;38.966;2023-01-28T15:31:28;5.12;74.09
65203;HTU21D;51788;45.124;38.966;2023-01-28T15:33:59;5.11;74.09
65203;HTU21D;51788;45.124;38.966;2023-01-28T15:36:26;5.11;74.02
65203;HTU21D;51788;45.124;38.966;2023-01-28T15:38:53;5.10;74.02
65203;HTU21D;51788;45.124;38.966;2023-01-28T15:44:27;5.08;74.20
65203;HTU21D;51788;45.124;38.966;2023-01-28T15:46:56;5.08;74.24
65203;HTU21D;51788;45.124;38.966;2023-01-28T15:49:27;5.10;74.31
65203;HTU21D;51788;45.124;38.966;2023-01-28T15:51:54;5.12;74.38
65203;HTU21D;51788;45.124;38.966;2023-01-28T15:54:20;5.15;74.34
65203;HTU21D;51788;45.124;38.966;2023-01-28T15:56:48;5.17;74.36
65203;HTU21D;51788;45.124;38.966;2023-01-28T15:59:26;5.17;74.41
65203;HTU21D;51788;45.124;38.966;2023-01-28T16:02:17;5.22;74.45
65203;HTU21D;51788;45.124;38.966;2023-01-28T16:04:54;5.21;74.35
65203;HTU21D;51788;45.124;38.966;2023-01-28T16:07:20;5.21;74.40
65203;HTU21D;51788;45.124;38.966;2023-01-28T16:09:50;5.22;74.35
65203;HTU21D;51788;45.124;38.966;2023-01-28T16:12:17;5.23;74.34
65203;HTU21D;51788;45.124;38.966;2023-01-28T16:14:47;5.25;74.33
65203;HTU21D;51788;45.124;38.966;2023-01-28T16:17:20;5.26;74.32
65203;HTU21D;51788;45.124;38.966;2023-01-28T16:19:50;5.27;74.36
65203;HTU21D;51788;45.124;38.966;2023-01-28T16:22:36;5.30;74.37
65203;HTU21D;51788;45.124;38.966;2023-01-28T16:25:17;5.31;74.35
65203;HTU21D;51788;45.124;38.966;2023-01-28T16:27:48;5.30;74.32
65203;HTU21D;51788;45.124;38.966;2023-01-28T16:30:14;5.25;74.42
65203;HTU21D;51788;45.124;38.966;2023-01-28T16:32:41;5.23;74.50
65203;HTU21D;51788;45.124;38.966;2023-01-28T16:35:21;5.25;74.59
65203;HTU21D;51788;45.124;38.966;2023-01-28T16:37:48;5.28;74.60
65203;HTU21D;51788;45.124;38.966;2023-01-28T16:40:16;5.30;74.60
65203;HTU21D;51788;45.124;38.966;2023-01-28T16:42:43;5.26;74.63
65203;HTU21D;51788;45.124;38.966;2023-01-28T16:45:21;5.26;74.79
65203;HTU21D;51788;45.124;38.966;2023-01-28T16:47:48;5.23;74.86
65203;HTU21D;51788;45.124;38.966;2023-01-28T16:50:14;5.17;74.95
65203;HTU21D;51788;45.124;38.966;2023-01-28T16:52:42;5.15;75.18
65203;HTU21D;51788;45.124;38.966;2023-01-28T16:55:11;5.10;75.24
65203;HTU21D;51788;45.124;38.966;2023-01-28T16:57:38;5.07;75.36
65203;HTU21D;51788;45.124;38.966;2023-01-28T17:00:04;5.05;75.41
65203;HTU21D;51788;45.124;38.966;2023-01-28T17:02:31;5.04;75.43
65203;HTU21D;51788;45.124;38.966;2023-01-28T17:04:56;5.05;75.56
65203;HTU21D;51788;45.124;38.966;2023-01-28T17:07:22;5.01;75.86
65203;HTU21D;51788;45.124;38.966;2023-01-28T17:09:49;4.96;76.22
65203;HTU21D;51788;45.124;38.966;2023-01-28T17:12:14;4.90;76.44
65203;HTU21D;51788;45.124;38.966;2023-01-28T17:14:40;4.84;76.98
65203;HTU21D;51788;45.124;38.966;2023-01-28T17:17:06;4.79;77.29
65203;HTU21D;51788;45.124;38.966;2023-01-28T17:19:32;4.74;77.95
65203;HTU21D;51788;45.124;38.966;2023-01-28T17:21:58;4.65;78.21
65203;HTU21D;51788;45.124;38.966;2023-01-28T17:24:24;4.58;78.55
65203;HTU21D;51788;45.124;38.966;2023-01-28T17:26:51;4.52;78.26
65203;HTU21D;51788;45.124;38.966;2023-01-28T17:29:17;4.53;78.30
65203;HTU21D;51788;45.124;38.966;2023-01-28T17:31:43;4.56;78.38
65203;HTU21D;51788;45.124;38.966;2023-01-28T17:34:09;4.59;78.36
65203;HTU21D;51788;45.124;38.966;2023-01-28T17:36:37;4.60;78.40
65203;HTU21D;51788;45.124;38.966;2023-01-28T17:39:03;4.60;78.24
65203;HTU21D;51788;45.124;38.966;2023-01-28T17:41:31;4.63;78.27
65203;HTU21D;51788;45.124;38.966;2023-01-28T17:43:57;4.65;78.35
65203;HTU21D;51788;45.124;38.966;2023-01-28T17:46:25;4.64;78.33